Time;durP1;ratioP1;P1;durP2;ratioP2;P2;SDS_P1;SDS_P2;PMS_P1;PMS_P2;Temp;Humidity;BMP_temperature;BMP_pressure;BME280_temperature;BME280_humidity;BME280_pressure;Samples;Min_cycle;Max_cycle;Signal;HPM_P1;HPM_P2
2021/06/04 00:01:23;;;;;;;;;;;;;;;22.65;49.84;101418.69;5064237;28;19912;-85
2021/06/04 00:04:08;;;;;;;;;;;;;;;22.62;50.21;101414.69;5063141;28;19912;-85
2021/06/04 00:06:53;;;;;;;;;;;;;;;22.60;50.47;101422.63;5057470;28;19912;-83
2021/06/04 00:09:38;;;;;;;;;;;;;;;22.52;50.71;101418.16;5061211;28;19912;-83
2021/06/04 00:12:22;;;;;;;;;;;;;;;22.60;50.82;101417.06;5059130;28;19913;-81
2021/06/04 00:15:08;;;;;;;;;;;;;;;22.71;50.64;101422.72;5058017;28;19920;-82
2021/06/04 00:17:53;;;;;;;;;;;;;;;22.83;50.31;101417.72;5059290;28;19912;-82
2021/06/04 00:20:39;;;;;;;;;;;;;;;22.85;50.10;101420.91;5053611;28;19912;-81
2021/06/04 00:23:24;;;;;;;;;;;;;;;22.89;50.07;101415.41;5054312;28;20313;-83
2021/06/04 00:26:09;;;;;;;;;;;;;;;22.94;49.85;101415.84;5055717;28;19912;-82
2021/06/04 00:28:53;;;;;;;;;;;;;;;22.96;49.86;101409.91;5040079;28;20304;-82
2021/06/04 00:31:39;;;;;;;;;;;;;;;23.01;49.74;101418.66;5037227;28;19913;-81
2021/06/04 00:34:24;;;;;;;;;;;;;;;23.00;49.73;101413.53;5034937;28;20393;-80
2021/06/04 00:37:10;;;;;;;;;;;;;;;23.00;49.29;101411.56;5041129;28;19913;-80
2021/06/04 00:39:54;;;;;;;;;;;;;;;22.86;49.91;101407.81;5042453;28;19917;-84
2021/06/04 00:42:41;;;;;;;;;;;;;;;22.88;49.68;101406.28;5057077;28;19912;-85
2021/06/04 00:45:28;;;;;;;;;;;;;;;22.94;49.74;101401.97;5042286;28;19912;-83
2021/06/04 00:48:13;;;;;;;;;;;;;;;22.94;49.42;101403.97;5045310;28;20404;-83
2021/06/04 00:51:00;;;;;;;;;;;;;;;22.86;49.68;101403.06;5062524;28;20293;-85
2021/06/04 00:53:48;;;;;;;;;;;;;;;22.83;49.76;101412.16;5034158;28;19912;-84
2021/06/04 00:56:37;;;;;;;;;;;;;;;22.87;49.85;101401.91;5023954;28;19920;-83
2021/06/04 00:59:35;;;;;;;;;;;;;;;22.87;49.76;101406.66;5022211;28;19913;-85
2021/06/04 01:02:23;;;;;;;;;;;;;;;22.82;49.95;101412.53;5034550;28;19913;-84
2021/06/04 01:05:09;;;;;;;;;;;;;;;22.78;49.77;101408.94;5040869;28;19909;-82
2021/06/04 01:08:25;;;;;;;;;;;;;;;22.74;50.04;101400.59;5059620;28;19913;-85
2021/06/04 01:19:08;;;;;;;;;;;;;;;22.73;49.71;101404.53;5054238;28;20304;-85
2021/06/04 01:21:54;;;;;;;;;;;;;;;22.74;49.42;101399.81;5040031;28;19913;-84
2021/06/04 01:25:00;;;;;;;;;;;;;;;22.73;49.54;101401.78;5037731;28;19913;-83
2021/06/04 01:27:48;;;;;;;;;;;;;;;22.70;49.46;101402.50;5042323;28;19912;-81
2021/06/04 01:30:42;;;;;;;;;;;;;;;22.68;49.27;101402.09;5027840;28;19912;-83
2021/06/04 01:33:36;;;;;;;;;;;;;;;22.63;49.44;101405.22;5056536;28;20424;-83
2021/06/04 01:36:29;;;;;;;;;;;;;;;22.56;49.27;101399.56;5029417;28;19925;-83
2021/06/04 01:39:17;;;;;;;;;;;;;;;22.52;49.51;101399.53;5058589;28;19912;-84
2021/06/04 01:42:06;;;;;;;;;;;;;;;22.53;49.54;101403.91;5032639;28;19920;-82
2021/06/04 01:44:55;;;;;;;;;;;;;;;22.48;49.23;101393.16;5069065;28;19912;-82
2021/06/04 01:47:43;;;;;;;;;;;;;;;22.50;49.17;101399.13;5034590;28;19913;-84
2021/06/04 01:50:34;;;;;;;;;;;;;;;22.51;49.11;101402.69;5041726;28;19912;-82
2021/06/04 01:53:25;;;;;;;;;;;;;;;22.53;49.21;101408.66;5042735;28;19913;-83
2021/06/04 01:59:52;;;;;;;;;;;;;;;22.51;48.91;101402.69;5051344;28;19913;-83
2021/06/04 02:02:59;;;;;;;;;;;;;;;22.52;49.22;101407.06;5052822;28;19912;-83
2021/06/04 02:05:59;;;;;;;;;;;;;;;22.54;48.91;101401.94;5050084;28;19916;-85
2021/06/04 02:08:49;;;;;;;;;;;;;;;22.54;48.82;101401.94;5036406;28;19917;-84
2021/06/04 02:11:38;;;;;;;;;;;;;;;22.53;48.98;101403.13;5059912;28;19912;-82
2021/06/04 02:14:30;;;;;;;;;;;;;;;22.51;49.18;101400.72;5030522;28;20381;-81
2021/06/04 02:17:37;;;;;;;;;;;;;;;22.50;48.99;101396.34;5023338;28;19917;-84
2021/06/04 02:20:33;;;;;;;;;;;;;;;22.48;48.71;101395.94;5013498;28;19913;-83
2021/06/04 02:23:47;;;;;;;;;;;;;;;22.46;48.93;101397.47;5035618;28;19913;-81
2021/06/04 02:26:50;;;;;;;;;;;;;;;22.41;49.27;101393.06;5044089;28;20396;-83
2021/06/04 02:29:40;;;;;;;;;;;;;;;22.39;48.90;101392.69;5047674;28;20326;-82
2021/06/04 02:32:29;;;;;;;;;;;;;;;22.37;49.36;101383.94;5031769;28;19920;-82
2021/06/04 02:35:23;;;;;;;;;;;;;;;22.36;48.96;101390.66;5041283;28;19917;-81
2021/06/04 02:38:16;;;;;;;;;;;;;;;22.35;49.13;101391.03;5027345;28;19920;-82
2021/06/04 02:41:22;;;;;;;;;;;;;;;22.33;48.92;101394.19;5037663;28;19913;-80
2021/06/04 02:44:13;;;;;;;;;;;;;;;22.31;49.24;101390.19;5032829;28;20200;-82
2021/06/04 02:47:06;;;;;;;;;;;;;;;22.28;49.39;101393.72;5044998;28;20304;-82
2021/06/04 02:49:54;;;;;;;;;;;;;;;22.23;49.04;101397.63;5063517;28;19913;-81
2021/06/04 02:52:41;;;;;;;;;;;;;;;22.20;49.20;101386.50;5060924;28;20280;-81
2021/06/04 02:55:30;;;;;;;;;;;;;;;22.18;49.39;101390.44;5044227;28;19917;-82
2021/06/04 02:58:16;;;;;;;;;;;;;;;22.21;49.33;101382.53;5029727;28;19935;-81
2021/06/04 03:01:01;;;;;;;;;;;;;;;22.20;49.04;101392.06;5044951;28;20318;-81
2021/06/04 03:03:52;;;;;;;;;;;;;;;22.17;49.06;101399.94;5033914;28;19921;-83
2021/06/04 03:06:38;;;;;;;;;;;;;;;22.14;48.92;101400.69;5047488;28;19924;-81
2021/06/04 03:09:26;;;;;;;;;;;;;;;22.12;49.21;101397.50;5039778;28;19920;-81
2021/06/04 03:12:11;;;;;;;;;;;;;;;22.12;48.92;101403.03;5031508;28;19913;-80
2021/06/04 03:14:57;;;;;;;;;;;;;;;22.15;49.29;101402.28;5033601;28;20305;-81
2021/06/04 03:17:42;;;;;;;;;;;;;;;22.15;48.72;101391.19;5029205;28;20401;-82
2021/06/04 03:20:30;;;;;;;;;;;;;;;22.20;48.75;101403.91;5028604;28;19916;-83
2021/06/04 03:38:53;;;;;;;;;;;;;;;22.27;48.44;101411.53;5057911;28;19916;-83
2021/06/04 03:41:40;;;;;;;;;;;;;;;22.27;48.41;101411.53;5043909;28;19913;-84
2021/06/04 03:44:26;;;;;;;;;;;;;;;22.30;48.40;101408.78;5060893;28;19913;-84
2021/06/04 03:47:12;;;;;;;;;;;;;;;22.23;48.02;101416.22;5059906;28;19913;-83
2021/06/04 03:49:57;;;;;;;;;;;;;;;21.80;48.94;101418.41;5060171;28;20296;-84
2021/06/04 03:53:01;;;;;;;;;;;;;;;21.12;51.75;101410.22;5057238;28;19912;-82
2021/06/04 03:55:46;;;;;;;;;;;;;;;21.12;51.89;101411.00;5059714;28;19916;-82
2021/06/04 03:58:30;;;;;;;;;;;;;;;20.96;52.69;101409.53;5057460;28;20389;-80
2021/06/04 04:01:23;;;;;;;;;;;;;;;20.80;53.33;101420.69;5042301;28;19913;-80
2021/06/04 04:04:08;;;;;;;;;;;;;;;20.74;53.75;101419.41;5041973;28;19917;-84
2021/06/04 04:06:53;;;;;;;;;;;;;;;20.73;54.16;101420.56;5026027;28;20389;-84
2021/06/04 04:09:57;;;;;;;;;;;;;;;20.70;54.74;101424.06;5051416;28;20064;-83
2021/06/04 04:12:42;;;;;;;;;;;;;;;20.60;55.39;101424.66;5049285;28;19912;-83
2021/06/04 04:15:45;;;;;;;;;;;;;;;20.64;55.58;101423.56;5056424;28;20389;-81
2021/06/04 04:18:30;;;;;;;;;;;;;;;20.54;56.31;101434.41;5052300;28;19912;-82
2021/06/04 04:21:15;;;;;;;;;;;;;;;20.40;56.89;101441.25;5044221;28;19913;-82
2021/06/04 04:24:02;;;;;;;;;;;;;;;20.51;56.69;101452.53;5047530;28;19913;-81
2021/06/04 04:26:47;;;;;;;;;;;;;;;20.92;54.89;101448.19;5053706;28;19916;-82
2021/06/04 04:29:33;;;;;;;;;;;;;;;20.93;55.30;101453.31;5047099;28;19913;-80
2021/06/04 04:32:37;;;;;;;;;;;;;;;20.84;55.50;101461.06;5052575;28;19913;-81
2021/06/04 04:35:40;;;;;;;;;;;;;;;20.59;56.24;101462.56;5057927;28;19921;-82
2021/06/04 04:38:25;;;;;;;;;;;;;;;20.63;56.63;101459.84;5054245;28;19916;-78
2021/06/04 04:44:15;;;;;;;;;;;;;;;20.65;55.82;101463.06;5054346;28;19913;-80
2021/06/04 04:50:05;;;;;;;;;;;;;;;20.88;54.58;101456.41;5038496;28;19917;-82
2021/06/04 04:52:49;;;;;;;;;;;;;;;20.73;54.88;101462.81;5037954;28;19913;-83
2021/06/04 04:55:36;;;;;;;;;;;;;;;20.76;54.67;101464.06;5056673;28;19916;-85
2021/06/04 04:58:21;;;;;;;;;;;;;;;20.83;54.66;101453.94;5062819;28;20292;-85
2021/06/04 05:01:06;;;;;;;;;;;;;;;21.09;54.16;101461.50;5061567;28;19912;-84
2021/06/04 05:03:51;;;;;;;;;;;;;;;20.99;54.11;101464.88;5058658;28;19912;-85
2021/06/04 05:06:36;;;;;;;;;;;;;;;21.00;54.29;101466.50;5060734;28;20304;-86
2021/06/04 05:09:21;;;;;;;;;;;;;;;20.92;55.29;101456.47;5056201;28;19912;-84
2021/06/04 05:12:06;;;;;;;;;;;;;;;21.04;55.67;101456.28;5051860;28;19912;-83
2021/06/04 05:15:09;;;;;;;;;;;;;;;21.02;56.31;101458.66;5039372;28;19916;-82
2021/06/04 05:17:54;;;;;;;;;;;;;;;20.99;56.35;101462.13;5062246;28;19916;-84
2021/06/04 05:20:39;;;;;;;;;;;;;;;21.02;56.37;101458.66;5054858;28;19912;-85
2021/06/04 05:23:24;;;;;;;;;;;;;;;21.17;56.14;101459.72;5048907;28;20078;-82
2021/06/04 05:26:09;;;;;;;;;;;;;;;21.19;55.84;101460.13;5059735;28;19913;-81
2021/06/04 05:28:53;;;;;;;;;;;;;;;21.41;54.53;101466.84;5059015;28;19913;-81
2021/06/04 05:31:56;;;;;;;;;;;;;;;21.61;53.99;101465.56;5051672;28;19920;-81
2021/06/04 05:34:41;;;;;;;;;;;;;;;21.49;54.07;101468.53;5050242;28;19913;-81
2021/06/04 05:37:25;;;;;;;;;;;;;;;21.41;54.08;101472.38;5034649;28;20385;-81
2021/06/04 05:40:15;;;;;;;;;;;;;;;21.45;54.18;101473.22;5045249;28;19913;-80
2021/06/04 05:43:21;;;;;;;;;;;;;;;21.53;54.32;101475.75;5049378;28;19913;-82
2021/06/04 05:46:07;;;;;;;;;;;;;;;21.55;54.84;101476.16;5046081;28;19925;-79
2021/06/04 05:48:51;;;;;;;;;;;;;;;21.52;55.31;101473.34;5047513;28;19921;-80
2021/06/04 05:51:55;;;;;;;;;;;;;;;21.41;55.57;101473.16;5043308;28;19913;-79
2021/06/04 05:54:43;;;;;;;;;;;;;;;21.48;55.72;101475.25;5046760;28;19917;-80
2021/06/04 05:57:28;;;;;;;;;;;;;;;21.56;55.19;101476.97;5045652;28;19921;-81
2021/06/04 06:00:35;;;;;;;;;;;;;;;21.66;55.24;101479.91;5040793;28;19913;-82
2021/06/04 06:06:43;;;;;;;;;;;;;;;21.91;54.10;101485.00;5042508;28;19917;-82
2021/06/04 06:09:29;;;;;;;;;;;;;;;21.92;54.54;101490.19;5046776;28;19913;-80
2021/06/04 06:12:14;;;;;;;;;;;;;;;22.03;54.09;101484.84;5046481;28;19912;-79
2021/06/04 06:18:02;;;;;;;;;;;;;;;22.21;52.89;101487.84;5048571;28;19917;-78
2021/06/04 06:26:54;;;;;;;;;;;;;;;22.59;52.57;101490.31;5038890;28;19913;-81
2021/06/04 06:29:39;;;;;;;;;;;;;;;22.63;51.53;101488.38;5036570;28;19913;-81
2021/06/04 06:32:42;;;;;;;;;;;;;;;22.66;51.91;101497.91;5041112;28;19913;-81
2021/06/04 06:35:30;;;;;;;;;;;;;;;22.70;51.61;101493.22;5040841;28;19913;-81
2021/06/04 06:41:19;;;;;;;;;;;;;;;22.82;51.91;101495.75;5040270;28;19913;-82
2021/06/04 06:44:04;;;;;;;;;;;;;;;22.92;52.18;101493.09;5038139;28;19913;-81
2021/06/04 06:46:49;;;;;;;;;;;;;;;23.00;51.43;101497.56;5041631;28;19913;-82
2021/06/04 06:49:33;;;;;;;;;;;;;;;23.08;51.55;101495.63;5039420;28;19920;-81
2021/06/04 06:52:19;;;;;;;;;;;;;;;23.07;51.91;101496.00;5037152;28;20369;-79
2021/06/04 06:58:27;;;;;;;;;;;;;;;23.32;50.03;101505.38;5021725;28;19917;-80
2021/06/04 07:01:12;;;;;;;;;;;;;;;23.34;48.73;101512.16;5035336;28;19913;-79
2021/06/04 07:03:57;;;;;;;;;;;;;;;23.35;49.37;101502.66;5038480;28;19913;-79
2021/06/04 07:06:42;;;;;;;;;;;;;;;23.43;49.50;101515.41;5037108;28;19912;-79
2021/06/04 07:09:27;;;;;;;;;;;;;;;23.49;48.51;101515.88;5035217;28;19917;-80
2021/06/04 07:12:12;;;;;;;;;;;;;;;23.54;49.31;101515.53;5038328;28;19913;-77
2021/06/04 07:14:57;;;;;;;;;;;;;;;23.71;47.88;101512.09;5036983;28;19913;-79
2021/06/04 07:17:42;;;;;;;;;;;;;;;23.70;48.22;101512.47;5035065;28;19916;-80
2021/06/04 07:20:28;;;;;;;;;;;;;;;23.85;47.55;101512.19;5038831;28;19913;-79
2021/06/04 07:23:32;;;;;;;;;;;;;;;23.92;47.91;101516.22;5036569;28;19913;-79
2021/06/04 07:26:17;;;;;;;;;;;;;;;23.94;47.11;101517.41;5043162;28;20289;-82
2021/06/04 07:29:02;;;;;;;;;;;;;;;23.91;47.89;101520.19;5040752;28;19912;-80
2021/06/04 07:31:47;;;;;;;;;;;;;;;23.98;48.09;101514.66;5038382;28;19913;-82
2021/06/04 07:34:32;;;;;;;;;;;;;;;24.03;48.51;101519.84;5035786;28;19913;-80
2021/06/04 07:37:16;;;;;;;;;;;;;;;24.03;48.06;101514.28;5040241;28;19983;-81
2021/06/04 07:40:20;;;;;;;;;;;;;;;24.13;47.87;101519.13;5029504;28;19912;-83
2021/06/04 07:43:07;;;;;;;;;;;;;;;24.26;47.05;101514.88;5048161;28;19920;-80
2021/06/04 07:45:53;;;;;;;;;;;;;;;24.41;47.47;101524.88;5046238;28;19913;-79
2021/06/04 07:48:37;;;;;;;;;;;;;;;24.49;46.75;101536.81;5046058;28;19928;-83
2021/06/04 07:51:25;;;;;;;;;;;;;;;24.49;46.30;101523.72;5049127;28;19913;-78
2021/06/04 07:54:12;;;;;;;;;;;;;;;24.63;46.46;101523.78;5045198;28;19912;-81
2021/06/04 07:56:57;;;;;;;;;;;;;;;24.59;46.51;101528.53;5040100;28;19917;-80
2021/06/04 07:59:42;;;;;;;;;;;;;;;24.64;46.09;101521.78;5051645;28;19913;-81
2021/06/04 08:02:26;;;;;;;;;;;;;;;24.66;46.70;101527.75;5046548;28;19912;-82
2021/06/04 08:05:11;;;;;;;;;;;;;;;24.83;46.52;101529.81;5045091;28;19913;-83
2021/06/04 08:08:14;;;;;;;;;;;;;;;25.23;45.42;101528.75;5048228;28;19932;-81
2021/06/04 08:10:59;;;;;;;;;;;;;;;25.15;41.90;101527.13;5046033;28;20376;-81
2021/06/04 08:14:07;;;;;;;;;;;;;;;25.14;41.76;101522.78;5041165;28;19913;-80
2021/06/04 08:16:53;;;;;;;;;;;;;;;25.09;43.19;101521.16;5042033;28;20389;-82
2021/06/04 08:19:39;;;;;;;;;;;;;;;25.07;43.58;101517.19;5031690;28;19916;-81
2021/06/04 08:22:23;;;;;;;;;;;;;;;24.96;44.42;101511.59;5044857;28;19913;-82
2021/06/04 08:25:09;;;;;;;;;;;;;;;25.00;43.58;101511.59;5053749;28;19917;-82
2021/06/04 08:27:54;;;;;;;;;;;;;;;25.09;44.08;101504.44;5038918;28;19913;-81
2021/06/04 08:30:40;;;;;;;;;;;;;;;25.13;43.83;101512.81;5041571;28;19917;-81
2021/06/04 08:33:29;;;;;;;;;;;;;;;25.23;44.10;101514.84;5044236;28;19913;-81
2021/06/04 08:36:16;;;;;;;;;;;;;;;25.27;43.74;101514.81;5044469;28;19916;-81
2021/06/04 08:42:05;;;;;;;;;;;;;;;25.31;43.29;101510.06;5045843;28;19913;-80
2021/06/04 08:45:02;;;;;;;;;;;;;;;24.93;44.22;101508.81;5052385;28;19913;-81
2021/06/04 08:47:51;;;;;;;;;;;;;;;25.00;43.96;101506.03;5047703;28;20316;-80
2021/06/04 08:50:35;;;;;;;;;;;;;;;25.13;44.06;101501.69;5040442;28;19913;-78
2021/06/04 08:53:20;;;;;;;;;;;;;;;25.38;43.35;101502.50;5040458;28;19912;-78
2021/06/04 08:56:14;;;;;;;;;;;;;;;25.59;43.51;101498.16;5046815;28;19912;-81
2021/06/04 08:59:00;;;;;;;;;;;;;;;25.54;43.02;101500.13;5052315;28;19913;-82
2021/06/04 09:01:48;;;;;;;;;;;;;;;25.58;43.26;101491.78;5042362;28;19912;-79
2021/06/04 09:04:32;;;;;;;;;;;;;;;25.62;43.42;101495.38;5042143;28;19913;-81
2021/06/04 09:07:23;;;;;;;;;;;;;;;25.68;42.84;101498.56;5042381;28;19913;-81
2021/06/04 09:13:31;;;;;;;;;;;;;;;25.38;43.37;101501.72;5050575;28;20388;-77
2021/06/04 09:19:46;;;;;;;;;;;;;;;25.64;42.97;101494.97;5051439;28;20392;-79
2021/06/04 09:22:35;;;;;;;;;;;;;;;25.70;42.88;101491.38;5040017;28;20292;-80
2021/06/04 09:28:47;;;;;;;;;;;;;;;25.53;44.37;101494.94;5040263;28;19912;-78
2021/06/04 09:31:36;;;;;;;;;;;;;;;25.86;43.47;101502.09;5042782;28;19913;-77
2021/06/04 09:34:21;;;;;;;;;;;;;;;25.64;43.43;101487.41;5052943;28;19916;-77
2021/06/04 09:37:12;;;;;;;;;;;;;;;25.53;44.18;101494.94;5042000;28;19917;-78
2021/06/04 09:40:15;;;;;;;;;;;;;;;25.50;43.31;101490.97;5046833;28;20364;-78
2021/06/04 09:43:03;;;;;;;;;;;;;;;25.29;44.68;101506.88;5036856;28;19913;-78
2021/06/04 09:45:55;;;;;;;;;;;;;;;25.52;44.52;101504.50;5054003;28;19917;-77
2021/06/04 09:48:52;;;;;;;;;;;;;;;25.75;43.89;101493.75;5043088;28;20377;-77
2021/06/04 09:51:38;;;;;;;;;;;;;;;25.82;44.00;101492.97;5041970;28;19913;-77
2021/06/04 09:54:29;;;;;;;;;;;;;;;25.84;43.43;101490.56;5060025;28;19916;-79
2021/06/04 09:57:18;;;;;;;;;;;;;;;25.58;43.93;101488.22;5058193;28;19916;-82
2021/06/04 10:00:22;;;;;;;;;;;;;;;26.16;42.70;101488.50;5058836;28;19912;-82
2021/06/04 10:03:28;;;;;;;;;;;;;;;26.30;42.21;101488.50;5057835;28;20381;-81
2021/06/04 10:06:13;;;;;;;;;;;;;;;26.28;42.21;101485.31;5058988;28;19912;-81
2021/06/04 10:09:09;;;;;;;;;;;;;;;26.09;42.64;101487.72;5059823;28;20308;-78
2021/06/04 10:12:13;;;;;;;;;;;;;;;26.50;42.10;101480.44;5056854;28;20300;-79
2021/06/04 10:15:02;;;;;;;;;;;;;;;26.68;41.46;101480.34;5058508;28;20376;-76
2021/06/04 10:18:29;;;;;;;;;;;;;;;26.37;42.18;101482.06;5052302;28;19917;-78
2021/06/04 10:21:13;;;;;;;;;;;;;;;26.58;42.20;101479.19;5051830;28;19920;-76
2021/06/04 10:27:06;;;;;;;;;;;;;;;26.07;43.76;101478.97;5039984;28;20300;-83
2021/06/04 10:33:32;;;;;;;;;;;;;;;26.18;42.62;101472.16;5051590;28;19913;-85
2021/06/04 10:36:19;;;;;;;;;;;;;;;26.41;42.50;101468.94;5058390;28;19913;-85
2021/06/04 10:39:07;;;;;;;;;;;;;;;26.48;41.56;101465.31;5055452;28;19913;-83
2021/06/04 10:42:00;;;;;;;;;;;;;;;26.61;41.79;101463.66;5051897;28;19912;-83
2021/06/04 10:44:44;;;;;;;;;;;;;;;26.87;41.62;101456.75;5058267;28;19913;-83
2021/06/04 10:47:49;;;;;;;;;;;;;;;26.89;41.50;101459.91;5057193;28;19916;-85
2021/06/04 10:50:44;;;;;;;;;;;;;;;26.36;41.56;101452.63;5017602;28;19913;-84
2021/06/04 10:53:47;;;;;;;;;;;;;;;25.89;42.86;101457.53;5055696;28;19917;-85
2021/06/04 10:56:38;;;;;;;;;;;;;;;25.76;43.64;101447.97;5054960;28;19920;-84
2021/06/04 10:59:29;;;;;;;;;;;;;;;25.61;43.79;101445.63;5060672;28;19912;-85
2021/06/04 11:02:45;;;;;;;;;;;;;;;25.46;44.53;101442.81;5066637;28;19912;-84
2021/06/04 11:05:47;;;;;;;;;;;;;;;25.62;43.75;101442.44;5068449;28;19920;-84
2021/06/04 11:08:51;;;;;;;;;;;;;;;26.50;40.69;101438.59;5066622;28;19916;-86
2021/06/04 11:11:52;;;;;;;;;;;;;;;26.31;41.37;101436.31;5068934;28;20284;-85
2021/06/04 11:14:48;;;;;;;;;;;;;;;26.16;41.73;101440.31;5064762;28;19913;-88
2021/06/04 11:17:41;;;;;;;;;;;;;;;25.53;43.87;101433.66;5065893;28;20372;-84
2021/06/04 11:20:39;;;;;;;;;;;;;;;25.90;42.44;101436.03;5065994;28;19912;-84
2021/06/04 11:23:29;;;;;;;;;;;;;;;25.61;42.82;101434.47;5050284;28;19913;-84
2021/06/04 11:29:22;;;;;;;;;;;;;;;25.50;42.90;101429.69;5062421;28;20366;-84
2021/06/04 11:32:13;;;;;;;;;;;;;;;25.66;42.58;101425.72;5059429;28;20293;-85
2021/06/04 11:35:00;;;;;;;;;;;;;;;25.76;42.10;101417.31;5064463;28;19920;-84
2021/06/04 11:38:00;;;;;;;;;;;;;;;25.63;42.26;101424.53;5061408;28;19921;-83
2021/06/04 11:40:51;;;;;;;;;;;;;;;25.55;42.91;101420.16;5052110;28;19917;-82
2021/06/04 11:43:37;;;;;;;;;;;;;;;25.73;42.48;101417.34;5035490;28;19917;-81
2021/06/04 11:46:25;;;;;;;;;;;;;;;25.70;41.94;101409.81;5049029;28;19912;-83
2021/06/04 11:49:12;;;;;;;;;;;;;;;26.02;39.94;101407.69;5056417;28;19912;-82
2021/06/04 11:52:16;;;;;;;;;;;;;;;25.81;41.67;101413.34;5055707;28;20300;-83
2021/06/04 11:55:07;;;;;;;;;;;;;;;25.61;42.40;101403.81;5043672;28;19913;-82
2021/06/04 11:57:56;;;;;;;;;;;;;;;25.70;42.04;101396.63;5035388;28;19916;-85
2021/06/04 12:01:00;;;;;;;;;;;;;;;25.83;41.55;101394.22;5049608;28;19912;-83
2021/06/04 12:04:06;;;;;;;;;;;;;;;25.61;42.20;101395.47;5053433;28;20281;-82
2021/06/04 12:06:53;;;;;;;;;;;;;;;25.30;43.11;101399.84;5059909;28;19912;-83
2021/06/04 12:09:40;;;;;;;;;;;;;;;25.41;42.84;101395.88;5059857;28;19920;-83
2021/06/04 12:12:25;;;;;;;;;;;;;;;25.31;42.60;101385.53;5057644;28;19913;-85
2021/06/04 12:15:10;;;;;;;;;;;;;;;25.67;41.33;101383.53;5057941;28;19912;-83
2021/06/04 12:18:14;;;;;;;;;;;;;;;26.54;38.48;101391.16;5059078;28;19916;-83
2021/06/04 12:20:59;;;;;;;;;;;;;;;26.86;38.32;101380.56;5039835;28;19913;-83
2021/06/04 12:23:47;;;;;;;;;;;;;;;26.15;40.22;101371.81;5036570;28;19912;-82
2021/06/04 12:26:33;;;;;;;;;;;;;;;26.03;40.38;101378.63;5042564;28;20556;-81
2021/06/04 12:29:26;;;;;;;;;;;;;;;26.04;40.25;101371.06;5039253;28;20285;-82
2021/06/04 12:32:30;;;;;;;;;;;;;;;25.96;40.66;101370.28;5036957;28;19913;-83
2021/06/04 12:35:33;;;;;;;;;;;;;;;25.95;40.19;101357.56;5039248;28;20362;-79
2021/06/04 12:38:23;;;;;;;;;;;;;;;26.04;40.53;101349.56;5036627;28;20568;-81
2021/06/04 12:41:07;;;;;;;;;;;;;;;25.51;41.63;101355.28;5040552;28;20293;-79
2021/06/04 12:43:53;;;;;;;;;;;;;;;25.53;41.59;101355.69;5038070;28;19913;-80
2021/06/04 12:46:38;;;;;;;;;;;;;;;25.62;41.36;101347.72;5036354;28;19913;-82
2021/06/04 12:49:23;;;;;;;;;;;;;;;25.78;41.09;101345.28;5039416;28;19913;-81
2021/06/04 12:52:20;;;;;;;;;;;;;;;25.70;40.11;101342.94;5037479;28;19913;-82
2021/06/04 12:55:17;;;;;;;;;;;;;;;26.45;38.67;101335.81;5022005;28;19913;-82
2021/06/04 12:58:19;;;;;;;;;;;;;;;26.67;37.42;101333.63;5058274;28;19917;-81
2021/06/04 13:01:07;;;;;;;;;;;;;;;26.64;38.28;101328.91;5056487;28;19912;-82
2021/06/04 13:04:10;;;;;;;;;;;;;;;26.41;38.74;101325.88;5059307;28;20285;-83
2021/06/04 13:06:56;;;;;;;;;;;;;;;26.47;36.99;101313.84;5056543;28;19920;-81
2021/06/04 13:09:43;;;;;;;;;;;;;;;26.16;39.02;101317.63;5054492;28;19913;-81
2021/06/04 13:12:29;;;;;;;;;;;;;;;26.16;38.78;101323.22;5057545;28;19913;-82
2021/06/04 13:15:16;;;;;;;;;;;;;;;25.98;39.76;101323.28;5054643;28;19912;-82
2021/06/04 13:18:04;;;;;;;;;;;;;;;25.77;40.31;101309.44;5053796;28;19917;-81
2021/06/04 13:20:52;;;;;;;;;;;;;;;25.76;40.29;101302.28;5051418;28;19912;-80
2021/06/04 13:23:38;;;;;;;;;;;;;;;26.71;37.00;101314.91;5048860;28;20377;-84
2021/06/04 13:26:46;;;;;;;;;;;;;;;26.53;38.27;101305.84;5043419;28;19913;-82
2021/06/04 13:29:32;;;;;;;;;;;;;;;26.25;37.80;101293.72;5054235;28;19921;-82
2021/06/04 13:32:19;;;;;;;;;;;;;;;25.84;39.71;101301.88;5056996;28;19912;-83
2021/06/04 13:35:25;;;;;;;;;;;;;;;25.80;39.82;101289.91;5052725;28;19913;-81
2021/06/04 13:38:44;;;;;;;;;;;;;;;25.79;39.97;101284.78;5053104;28;19916;-82
2021/06/04 13:41:38;;;;;;;;;;;;;;;26.14;38.78;101287.38;5057940;28;19913;-82
2021/06/04 13:44:24;;;;;;;;;;;;;;;26.18;37.69;101285.34;5056183;28;19913;-83
2021/06/04 13:47:11;;;;;;;;;;;;;;;26.31;36.87;101283.69;5054042;28;19917;-81
2021/06/04 13:49:56;;;;;;;;;;;;;;;26.53;37.28;101289.91;5039853;28;20313;-82
2021/06/04 13:52:54;;;;;;;;;;;;;;;26.50;37.04;101279.59;5042486;28;19912;-81
2021/06/04 13:55:42;;;;;;;;;;;;;;;26.53;36.83;101275.16;5049592;28;20392;-81
2021/06/04 13:58:29;;;;;;;;;;;;;;;26.54;36.88;101279.53;5049345;28;19917;-82
2021/06/04 14:01:19;;;;;;;;;;;;;;;26.42;36.73;101269.66;5055136;28;19912;-83
2021/06/04 14:04:41;;;;;;;;;;;;;;;26.12;38.18;101261.88;5047578;28;19917;-82
2021/06/04 14:07:26;;;;;;;;;;;;;;;25.67;39.60;101263.72;5055467;28;19912;-83
2021/06/04 14:10:14;;;;;;;;;;;;;;;25.65;39.36;101257.75;5053914;28;19912;-82
2021/06/04 14:13:01;;;;;;;;;;;;;;;25.62;39.50;101261.34;5067899;28;19913;-83
2021/06/04 14:16:05;;;;;;;;;;;;;;;25.69;39.27;101261.34;5065256;28;19913;-83
2021/06/04 14:21:57;;;;;;;;;;;;;;;26.19;37.51;101261.03;5039862;28;19913;-82
2021/06/04 14:24:50;;;;;;;;;;;;;;;26.06;38.20;101257.16;5055276;28;20316;-83
2021/06/04 14:30:42;;;;;;;;;;;;;;;25.96;38.19;101256.00;5042161;28;19917;-82
2021/06/04 14:33:28;;;;;;;;;;;;;;;26.26;36.93;101252.69;5059319;28;19913;-82
2021/06/04 14:36:24;;;;;;;;;;;;;;;26.49;36.53;101255.66;5059820;28;19913;-82
2021/06/04 14:39:27;;;;;;;;;;;;;;;26.98;34.31;101257.25;5052801;28;19916;-82
2021/06/04 14:42:20;;;;;;;;;;;;;;;26.71;36.01;101261.88;5064632;28;20308;-80
2021/06/04 14:45:06;;;;;;;;;;;;;;;26.90;35.02;101254.94;5056672;28;20384;-81
2021/06/04 14:47:51;;;;;;;;;;;;;;;26.57;36.27;101246.03;5036382;28;19915;-83
2021/06/04 14:50:36;;;;;;;;;;;;;;;26.02;37.65;101246.00;5056853;28;19913;-81
2021/06/04 14:53:20;;;;;;;;;;;;;;;25.88;38.24;101240.53;5062831;28;20407;-84
2021/06/04 14:56:07;;;;;;;;;;;;;;;26.17;36.88;101244.72;5060077;28;20369;-84
2021/06/04 14:58:52;;;;;;;;;;;;;;;26.56;35.91;101235.31;5033526;28;19917;-83
2021/06/04 15:01:39;;;;;;;;;;;;;;;26.24;37.36;101238.34;5056192;28;20378;-83
2021/06/04 15:04:24;;;;;;;;;;;;;;;25.94;37.59;101239.69;5050555;28;19913;-83
2021/06/04 15:07:09;;;;;;;;;;;;;;;26.24;36.46;101239.13;5064021;28;20384;-79
2021/06/04 15:09:56;;;;;;;;;;;;;;;26.35;36.42;101239.84;5037263;28;19913;-82
2021/06/04 15:12:41;;;;;;;;;;;;;;;26.54;36.25;101227.34;5047227;28;19917;-81
2021/06/04 15:15:27;;;;;;;;;;;;;;;26.76;35.03;101222.34;5049643;28;19917;-78
2021/06/04 15:18:14;;;;;;;;;;;;;;;26.72;35.81;101218.78;5052860;28;19917;-83
2021/06/04 15:20:59;;;;;;;;;;;;;;;26.36;36.86;101210.72;5052154;28;19912;-81
2021/06/04 15:23:44;;;;;;;;;;;;;;;25.97;37.85;101208.22;5031775;28;19921;-83
2021/06/04 15:26:29;;;;;;;;;;;;;;;25.94;37.95;101200.69;5050888;28;19917;-80
2021/06/04 15:29:15;;;;;;;;;;;;;;;25.83;38.07;101190.78;5053979;28;19913;-80
2021/06/04 15:32:01;;;;;;;;;;;;;;;26.08;37.63;101197.00;5058077;28;19917;-82
2021/06/04 15:34:46;;;;;;;;;;;;;;;26.12;38.04;101196.97;5043349;28;19913;-82
2021/06/04 15:37:31;;;;;;;;;;;;;;;26.18;37.47;101196.13;5038735;28;19921;-82
2021/06/04 15:40:35;;;;;;;;;;;;;;;26.16;37.84;101201.31;5041540;28;19913;-83
2021/06/04 15:43:20;;;;;;;;;;;;;;;25.97;38.22;101196.28;5054464;28;20301;-82
2021/06/04 15:49:09;;;;;;;;;;;;;;;25.79;38.75;101190.81;5038815;28;19912;-82
2021/06/04 15:55:16;;;;;;;;;;;;;;;25.87;38.51;101197.94;5048314;28;19912;-84
2021/06/04 15:58:20;;;;;;;;;;;;;;;25.74;38.85;101194.03;5049776;28;20392;-81
2021/06/04 16:01:04;;;;;;;;;;;;;;;25.86;38.10;101187.19;5062458;28;20515;-82